Kotohira Maru No.8 — JL6457 — position and weather

sailwx.info

Track history (hours):
 
Tides and Currents Weather Stations Pressure Air Temp Water Temp Dewpoint Dewpoint Depression Visibility Wind Speed Wind Dir Waves Ship Positions

Kotohira Maru No.8

Last reported at 2017-Nov-17 12:05 UTC. Time now 2017-Nov-23 22:19 UTC.
Position N 34°55' E 139°18'.

Length 73 m; draft 3.5 m.

Type: Cargo ship. MMSI: 431500458.

Date/timePositionNaut miles runAvg speedWind from/ knotsBaromVisibWave heightAir tempDewpointWater temp
2017-Nov-17 12:05N 34°55' E 139°18'410.7
2017-Nov-17 11:42N 34°58' E 139°23'211.0
2017-Nov-17 11:30N 34°59' E 139°25'611.1
2017-Nov-17 10:59N 35°02' E 139°31'611.5
2017-Nov-17 10:30N 35°05' E 139°36'611.2
2017-Nov-17 10:00N 35°08' E 139°42'611.8
2017-Nov-17 09:30N 35°13' E 139°46'611.8
2017-Nov-17 09:00N 35°18' E 139°44'611.2
2017-Nov-17 08:30N 35°24' E 139°43'611.6
2017-Nov-17 08:00N 35°28' E 139°47'1 2.1
2017-Nov-17 07:30N 35°29' E 139°48'0 0.1
2017-Nov-17 06:57N 35°29' E 139°48'0 0.2
2017-Nov-17 06:30N 35°29' E 139°48'3 5.5
2017-Nov-17 06:00N 35°30' E 139°46'1 0.3
2017-Nov-17 04:06N 35°30' E 139°45'0 0.0
2017-Nov-17 04:00N 35°30' E 139°45'0 0.0
2017-Nov-17 03:28N 35°30' E 139°45'0 0.0
2017-Nov-17 01:17N 35°30' E 139°45'0 0.0
2017-Nov-17 01:00N 35°30' E 139°45'0 0.0
2017-Nov-17 00:29N 35°30' E 139°45'0 0.0
2017-Nov-16 23:59N 35°30' E 139°45'0 0.0
2017-Nov-16 23:29N 35°30' E 139°45'0 0.0
2017-Nov-16 22:37N 35°30' E 139°45'0 0.4
2017-Nov-16 22:30N 35°30' E 139°45'3 5.6
2017-Nov-16 22:00N 35°29' E 139°48'5 9.5
2017-Nov-16 21:30N 35°24' E 139°46'5 9.3
2017-Nov-16 21:00N 35°20' E 139°44'4 8.9
2017-Nov-16 20:30N 35°16' E 139°47'5 9.4
2017-Nov-16 20:00N 35°11' E 139°47'510.0
2017-Nov-16 19:30N 35°06' E 139°44'510.0
2017-Nov-16 19:00N 35°03' E 139°40'  
2017-Nov-07 23:40N 35°04' E 139°45'210.0
2017-Nov-07 23:28N 35°06' E 139°45'510.0
2017-Nov-07 22:58N 35°11' E 139°46'510.5
2017-Nov-07 22:30N 35°15' E 139°46'4 9.1
2017-Nov-07 22:01N 35°17' E 139°41'  
Track history (hours):
 
Tides and Currents Weather Stations Pressure Air Temp Water Temp Dewpoint Dewpoint Depression Visibility Wind Speed Wind Dir Waves Ship Positions

Kotohira Maru No.8

Last reported at 2017-Nov-17 12:05 UTC. Time now 2017-Nov-23 22:19 UTC.
Position N 34°55' E 139°18'.

Length 73 m; draft 3.5 m.

Type: Cargo ship. MMSI: 431500458.

Date/timePositionNaut miles runAvg speedWind from/ knotsBaromVisibWave heightAir tempDewpointWater temp
2017-Nov-17 12:05N 34°55' E 139°18'410.7
2017-Nov-17 11:42N 34°58' E 139°23'211.0
2017-Nov-17 11:30N 34°59' E 139°25'611.1
2017-Nov-17 10:59N 35°02' E 139°31'611.5
2017-Nov-17 10:30N 35°05' E 139°36'611.2
2017-Nov-17 10:00N 35°08' E 139°42'611.8
2017-Nov-17 09:30N 35°13' E 139°46'611.8
2017-Nov-17 09:00N 35°18' E 139°44'611.2
2017-Nov-17 08:30N 35°24' E 139°43'611.6
2017-Nov-17 08:00N 35°28' E 139°47'1 2.1
2017-Nov-17 07:30N 35°29' E 139°48'0 0.1
2017-Nov-17 06:57N 35°29' E 139°48'0 0.2
2017-Nov-17 06:30N 35°29' E 139°48'3 5.5
2017-Nov-17 06:00N 35°30' E 139°46'1 0.3
2017-Nov-17 04:06N 35°30' E 139°45'0 0.0
2017-Nov-17 04:00N 35°30' E 139°45'0 0.0
2017-Nov-17 03:28N 35°30' E 139°45'0 0.0
2017-Nov-17 01:17N 35°30' E 139°45'0 0.0
2017-Nov-17 01:00N 35°30' E 139°45'0 0.0
2017-Nov-17 00:29N 35°30' E 139°45'0 0.0
2017-Nov-16 23:59N 35°30' E 139°45'0 0.0
2017-Nov-16 23:29N 35°30' E 139°45'0 0.0
2017-Nov-16 22:37N 35°30' E 139°45'0 0.4
2017-Nov-16 22:30N 35°30' E 139°45'3 5.6
2017-Nov-16 22:00N 35°29' E 139°48'5 9.5
2017-Nov-16 21:30N 35°24' E 139°46'5 9.3
2017-Nov-16 21:00N 35°20' E 139°44'4 8.9
2017-Nov-16 20:30N 35°16' E 139°47'5 9.4
2017-Nov-16 20:00N 35°11' E 139°47'510.0
2017-Nov-16 19:30N 35°06' E 139°44'510.0
2017-Nov-16 19:00N 35°03' E 139°40'  
2017-Nov-07 23:40N 35°04' E 139°45'210.0
2017-Nov-07 23:28N 35°06' E 139°45'510.0
2017-Nov-07 22:58N 35°11' E 139°46'510.5
2017-Nov-07 22:30N 35°15' E 139°46'4 9.1
2017-Nov-07 22:01N 35°17' E 139°41'  

Dump ship's entire track history